createdAt,value
2019-03-21T00:00:49.674Z,13.02
2019-03-21T00:01:57.834Z,12.77
2019-03-21T00:03:04.410Z,12.97
2019-03-21T00:04:12.504Z,13.01
2019-03-21T00:05:18.200Z,12.82
2019-03-21T00:06:24.496Z,12.81
2019-03-21T00:07:30.524Z,13.07
2019-03-21T00:08:37.179Z,13.15
2019-03-21T00:10:03.373Z,12.94
2019-03-21T00:11:34.156Z,12.77
2019-03-21T00:12:40.179Z,12.69
2019-03-21T00:13:46.214Z,12.94
2019-03-21T00:15:33.334Z,13.08
2019-03-21T00:16:39.507Z,12.93
2019-03-21T00:17:51.986Z,13.11
2019-03-21T00:18:59.634Z,13.05
2019-03-21T00:20:07.120Z,12.97
2019-03-21T00:21:14.025Z,13.13
2019-03-21T00:22:20.894Z,13.02
2019-03-21T00:23:28.347Z,13.11
2019-03-21T00:24:34.581Z,13.18
2019-03-21T00:25:40.690Z,13.14
2019-03-21T00:26:46.221Z,13.31
2019-03-21T00:27:52.001Z,13.03
2019-03-21T00:28:59.027Z,13.05
2019-03-21T00:30:05.764Z,13.12
2019-03-21T00:31:11.582Z,12.88
2019-03-21T00:32:17.641Z,13.02
2019-03-21T00:33:23.419Z,13.04
2019-03-21T00:34:30.256Z,13.12
2019-03-21T00:35:38.523Z,13.01
2019-03-21T00:36:44.137Z,13.17
2019-03-21T00:37:50.030Z,13.06
2019-03-21T00:38:56.166Z,13.12
2019-03-21T00:40:02.240Z,13.04
2019-03-21T00:41:08.572Z,12.93
2019-03-21T00:42:14.356Z,12.90
2019-03-21T00:43:20.735Z,12.96
2019-03-21T00:44:27.122Z,12.92
2019-03-21T00:45:33.516Z,12.86
2019-03-21T00:46:39.634Z,12.87
2019-03-21T00:47:45.617Z,12.82
2019-03-21T00:48:53.434Z,12.96
2019-03-21T00:50:00.373Z,12.90
2019-03-21T00:51:07.199Z,12.77
2019-03-21T00:52:14.053Z,12.86
2019-03-21T00:53:20.086Z,12.65
2019-03-21T00:54:26.165Z,12.79
2019-03-21T00:55:32.869Z,12.89
2019-03-21T00:56:38.683Z,12.95
2019-03-21T00:57:45.058Z,12.93
2019-03-21T00:58:51.760Z,12.85
2019-03-21T00:59:57.959Z,12.75
2019-03-21T01:01:04.120Z,12.72
2019-03-21T01:02:10.170Z,12.80
2019-03-21T01:03:16.388Z,12.96
2019-03-21T01:04:23.826Z,12.61
2019-03-21T01:05:30.163Z,12.81
2019-03-21T01:06:35.930Z,12.66
2019-03-21T01:07:43.153Z,12.63
2019-03-21T01:08:50.112Z,12.79
2019-03-21T01:09:56.683Z,12.75
2019-03-21T01:11:02.771Z,12.88
2019-03-21T01:12:09.512Z,12.88
2019-03-21T01:13:15.692Z,12.91
2019-03-21T01:14:29.340Z,12.81
2019-03-21T01:15:29.260Z,12.77
2019-03-21T01:16:35.810Z,12.73
2019-03-21T01:17:42.181Z,12.83
2019-03-21T01:18:47.776Z,12.67
2019-03-21T01:19:53.943Z,12.52
2019-03-21T01:21:00.686Z,12.51
2019-03-21T01:22:06.705Z,12.56
2019-03-21T01:23:13.104Z,12.52
2019-03-21T01:24:19.402Z,12.46
2019-03-21T01:25:31.546Z,12.35
2019-03-21T01:26:37.689Z,12.33
2019-03-21T01:27:44.615Z,12.07
2019-03-21T01:28:50.389Z,12.49
2019-03-21T01:29:57.267Z,12.34
2019-03-21T01:31:03.815Z,12.34
2019-03-21T01:32:11.018Z,12.28
2019-03-21T01:33:17.715Z,12.53
2019-03-21T01:34:24.186Z,12.72
2019-03-21T01:35:30.222Z,12.58
2019-03-21T01:36:37.349Z,12.77
2019-03-21T01:37:43.273Z,12.74
2019-03-21T01:38:50.966Z,12.64
2019-03-21T01:39:57.704Z,12.62
2019-03-21T01:41:03.762Z,12.47
2019-03-21T01:42:09.485Z,12.59
2019-03-21T01:43:15.317Z,12.36
2019-03-21T01:44:21.895Z,12.45
2019-03-21T01:45:27.964Z,12.34
2019-03-21T01:46:34.067Z,12.45
2019-03-21T01:47:41.049Z,12.36
2019-03-21T01:48:47.157Z,12.64
2019-03-21T01:49:54.479Z,12.36
2019-03-21T01:51:01.010Z,12.24
2019-03-21T01:52:07.071Z,12.38
2019-03-21T01:53:14.349Z,12.53
2019-03-21T01:54:20.361Z,12.35
2019-03-21T01:55:26.368Z,12.30
2019-03-21T01:56:32.600Z,12.48
2019-03-21T01:57:38.450Z,12.43
2019-03-21T01:58:44.783Z,12.29
2019-03-21T01:59:51.794Z,12.41
2019-03-21T02:00:57.845Z,12.42
2019-03-21T02:02:05.511Z,12.45
2019-03-21T02:03:11.308Z,12.33
2019-03-21T02:04:17.359Z,12.28
2019-03-21T02:05:23.130Z,12.14
2019-03-21T02:06:29.232Z,12.32
2019-03-21T02:07:35.824Z,12.45
2019-03-21T02:08:43.247Z,12.31
2019-03-21T02:09:49.008Z,12.21
2019-03-21T02:10:54.754Z,12.34
2019-03-21T02:12:01.398Z,12.40
2019-03-21T02:13:09.071Z,11.99
2019-03-21T02:14:15.861Z,11.99
2019-03-21T02:15:21.687Z,12.41
2019-03-21T02:16:27.431Z,12.59
2019-03-21T02:17:33.748Z,12.25
2019-03-21T02:18:39.743Z,12.19
2019-03-21T02:19:46.718Z,12.25
2019-03-21T02:20:54.166Z,12.17
2019-03-21T02:22:01.045Z,12.18
2019-03-21T02:23:07.946Z,12.26
2019-03-21T02:24:13.470Z,12.19
2019-03-21T02:25:21.621Z,12.05
2019-03-21T02:26:27.180Z,12.08
2019-03-21T02:27:34.308Z,12.09
2019-03-21T02:28:41.520Z,12.19
2019-03-21T02:29:48.157Z,12.32
2019-03-21T02:30:54.017Z,12.32
2019-03-21T02:31:59.962Z,12.32
2019-03-21T02:33:21.640Z,12.19
2019-03-21T02:34:27.446Z,12.09
2019-03-21T02:35:33.572Z,11.81
2019-03-21T02:36:39.355Z,11.80
2019-03-21T02:37:45.105Z,12.04
2019-03-21T02:38:51.680Z,11.86
2019-03-21T02:40:00.217Z,12.20
2019-03-21T02:41:07.206Z,12.36
2019-03-21T02:42:14.197Z,12.30
2019-03-21T02:43:20.818Z,12.14
2019-03-21T02:44:27.343Z,12.22
2019-03-21T02:45:34.186Z,12.04
2019-03-21T02:46:40.786Z,12.15
2019-03-21T02:47:46.529Z,12.14
2019-03-21T02:48:53.470Z,12.09
2019-03-21T02:50:00.629Z,11.97
2019-03-21T02:51:06.721Z,11.91
2019-03-21T02:52:13.276Z,11.97
2019-03-21T02:53:19.598Z,12.18
2019-03-21T02:54:26.217Z,12.11
2019-03-21T02:55:31.955Z,12.10
2019-03-21T02:56:39.747Z,12.14
2019-03-21T02:57:46.211Z,12.27
2019-03-21T02:58:51.991Z,12.22
2019-03-21T02:59:58.867Z,12.12
2019-03-21T03:01:05.557Z,12.19
2019-03-21T03:02:11.970Z,12.62
2019-03-21T03:03:17.533Z,12.52
2019-03-21T03:04:23.860Z,12.40
2019-03-21T03:05:30.710Z,12.00
2019-03-21T03:06:37.258Z,12.20
2019-03-21T03:07:43.294Z,12.09
2019-03-21T03:08:49.591Z,11.90
2019-03-21T03:09:56.533Z,12.04
2019-03-21T03:11:02.261Z,12.03
2019-03-21T03:12:08.049Z,12.09
2019-03-21T03:13:14.702Z,12.39
2019-03-21T03:14:20.812Z,12.36
2019-03-21T03:15:27.879Z,12.38
2019-03-21T03:16:33.484Z,12.20
2019-03-21T03:17:40.227Z,12.27
2019-03-21T03:18:47.154Z,12.48
2019-03-21T03:19:54.907Z,12.38
2019-03-21T03:21:02.038Z,12.37
2019-03-21T03:22:08.741Z,12.06
2019-03-21T03:23:15.731Z,12.11
2019-03-21T03:24:23.466Z,12.03
2019-03-21T03:25:30.099Z,11.87
2019-03-21T03:26:37.329Z,11.75
2019-03-21T03:27:43.270Z,11.74
2019-03-21T03:28:49.068Z,12.03
2019-03-21T03:29:55.190Z,11.89
2019-03-21T03:31:01.804Z,11.88
2019-03-21T03:32:08.709Z,11.98
2019-03-21T03:33:14.754Z,11.85
2019-03-21T03:34:20.513Z,11.79
2019-03-21T03:35:26.839Z,11.89
2019-03-21T03:36:34.054Z,11.49
2019-03-21T03:37:40.989Z,11.61
2019-03-21T03:38:47.856Z,11.62
2019-03-21T03:39:54.058Z,11.59
2019-03-21T03:41:01.094Z,11.79
2019-03-21T03:42:07.585Z,11.82
2019-03-21T03:43:14.373Z,11.86
2019-03-21T03:44:20.120Z,11.87
2019-03-21T03:45:37.519Z,11.86
2019-03-21T03:46:35.885Z,11.91
2019-03-21T03:47:42.430Z,11.84
2019-03-21T03:48:49.058Z,11.41
2019-03-21T03:49:55.234Z,11.46
2019-03-21T03:51:02.181Z,11.66
2019-03-21T03:52:07.698Z,11.56
2019-03-21T03:53:13.783Z,11.53
2019-03-21T03:54:20.320Z,11.50
2019-03-21T03:55:27.165Z,11.67
2019-03-21T03:56:34.054Z,11.33
2019-03-21T03:57:40.392Z,11.37
2019-03-21T03:58:47.440Z,11.45
2019-03-21T03:59:54.829Z,11.27
2019-03-21T04:01:00.996Z,11.48
2019-03-21T04:02:06.804Z,11.20
2019-03-21T04:03:13.190Z,11.43
2019-03-21T04:04:19.541Z,11.73
2019-03-21T04:05:26.205Z,11.41
2019-03-21T04:06:32.235Z,11.27
2019-03-21T04:07:38.594Z,11.58
2019-03-21T04:08:45.983Z,11.30
2019-03-21T04:09:52.372Z,11.33
2019-03-21T04:10:58.470Z,11.46
2019-03-21T04:12:05.833Z,11.30
2019-03-21T04:13:12.678Z,11.28
2019-03-21T04:14:19.032Z,11.52
2019-03-21T04:15:25.663Z,11.40
2019-03-21T04:16:33.373Z,11.48
2019-03-21T04:17:39.978Z,11.56
2019-03-21T04:18:46.026Z,11.41
2019-03-21T04:19:51.803Z,11.29
2019-03-21T04:20:58.522Z,11.50
2019-03-21T04:22:05.113Z,11.50
2019-03-21T04:23:10.965Z,11.57
2019-03-21T04:24:17.399Z,11.61
2019-03-21T04:25:27.127Z,11.40
2019-03-21T04:26:33.134Z,11.28
2019-03-21T04:27:39.704Z,11.14
2019-03-21T04:28:45.861Z,11.20
2019-03-21T04:29:52.757Z,11.49
2019-03-21T04:30:59.706Z,11.46
2019-03-21T04:32:06.241Z,11.22
2019-03-21T04:33:12.296Z,11.29
2019-03-21T04:34:18.871Z,11.38
2019-03-21T04:35:25.483Z,11.36
2019-03-21T04:36:31.270Z,11.31
2019-03-21T04:37:39.065Z,11.26
2019-03-21T04:38:45.448Z,11.45
2019-03-21T04:39:52.557Z,11.37
2019-03-21T04:40:59.386Z,11.16
2019-03-21T04:42:05.179Z,11.30
2019-03-21T04:43:11.081Z,11.39
2019-03-21T04:44:17.638Z,11.25
2019-03-21T04:45:23.428Z,11.34
2019-03-21T04:46:30.313Z,11.21
2019-03-21T04:47:36.353Z,11.23
2019-03-21T04:48:42.638Z,11.47
2019-03-21T04:49:48.526Z,11.20
2019-03-21T04:50:55.543Z,11.15
2019-03-21T04:52:01.604Z,11.35
2019-03-21T04:53:07.617Z,11.33
2019-03-21T04:54:14.221Z,11.40
2019-03-21T04:55:20.059Z,11.26
2019-03-21T04:56:26.024Z,11.45
2019-03-21T04:57:32.283Z,11.41
2019-03-21T04:58:38.089Z,11.30
2019-03-21T04:59:44.920Z,11.13
2019-03-21T05:00:51.154Z,11.10
2019-03-21T05:02:01.251Z,11.09
2019-03-21T05:03:07.843Z,10.78
2019-03-21T05:04:15.178Z,10.81
2019-03-21T05:05:22.083Z,11.17
2019-03-21T05:06:29.627Z,10.94
2019-03-21T05:07:36.512Z,11.12
2019-03-21T05:08:42.949Z,11.12
2019-03-21T05:09:50.352Z,11.07
2019-03-21T05:10:56.136Z,11.22
2019-03-21T05:12:03.155Z,11.21
2019-03-21T05:13:09.584Z,11.28
2019-03-21T05:14:16.942Z,11.36
2019-03-21T05:15:31.777Z,11.51
2019-03-21T05:16:37.556Z,11.47
2019-03-21T05:17:43.342Z,11.39
2019-03-21T05:18:49.532Z,11.44
2019-03-21T05:19:56.152Z,11.28
2019-03-21T05:21:02.400Z,11.22
2019-03-21T05:22:08.452Z,11.21
2019-03-21T05:23:14.254Z,11.23
2019-03-21T05:24:20.032Z,11.20
2019-03-21T05:25:26.626Z,11.31
2019-03-21T05:26:33.444Z,11.07
2019-03-21T05:27:39.495Z,10.82
2019-03-21T05:28:46.406Z,10.86
2019-03-21T05:29:55.276Z,11.03
2019-03-21T05:31:04.472Z,10.98
2019-03-21T05:32:10.806Z,11.05
2019-03-21T05:33:16.893Z,11.04
2019-03-21T05:34:23.175Z,11.07
2019-03-21T05:35:29.486Z,11.16
2019-03-21T05:36:36.386Z,11.37
2019-03-21T05:37:42.697Z,11.33
2019-03-21T05:38:49.588Z,11.26
2019-03-21T05:39:57.029Z,11.39
2019-03-21T05:41:03.069Z,11.43
2019-03-21T05:42:12.876Z,11.40
2019-03-21T05:43:21.982Z,11.41
2019-03-21T05:44:32.116Z,11.50
2019-03-21T05:45:39.226Z,11.32
2019-03-21T05:46:45.324Z,11.49
2019-03-21T05:47:51.740Z,11.37
2019-03-21T05:48:58.495Z,11.33
2019-03-21T05:50:05.213Z,11.27
2019-03-21T05:51:12.105Z,11.30
2019-03-21T05:52:18.682Z,11.18
2019-03-21T05:53:24.809Z,11.16
2019-03-21T05:54:31.344Z,10.99
2019-03-21T05:55:37.646Z,11.08
2019-03-21T05:56:44.512Z,11.27
2019-03-21T05:57:50.573Z,11.01
2019-03-21T05:58:57.919Z,11.07
2019-03-21T06:00:05.033Z,11.39
2019-03-21T06:01:11.073Z,11.54
2019-03-21T06:02:17.592Z,11.76
2019-03-21T06:03:29.211Z,11.62
2019-03-21T06:04:35.244Z,11.41
2019-03-21T06:05:42.038Z,11.68
2019-03-21T06:07:11.210Z,11.49
2019-03-21T06:08:27.307Z,11.76
2019-03-21T06:09:34.778Z,11.51
2019-03-21T06:10:41.073Z,11.51
2019-03-21T06:11:50.270Z,11.55
2019-03-21T06:12:56.609Z,11.50
2019-03-21T06:14:02.388Z,11.61
2019-03-21T06:15:08.356Z,11.62
2019-03-21T06:16:14.426Z,11.54
2019-03-21T06:17:20.197Z,11.88
2019-03-21T06:18:46.925Z,11.75
2019-03-21T06:20:24.168Z,11.47
2019-03-21T06:21:34.423Z,11.70
2019-03-21T06:23:15.260Z,11.97
2019-03-21T06:25:06.687Z,12.01
2019-03-21T06:26:38.018Z,12.15
2019-03-21T06:27:44.065Z,11.50
2019-03-21T06:28:51.366Z,11.84
2019-03-21T06:29:57.677Z,11.72
2019-03-21T06:31:04.429Z,12.20
2019-03-21T06:32:12.926Z,11.96
2019-03-21T06:33:18.835Z,11.97
2019-03-21T06:34:25.789Z,12.23
2019-03-21T06:35:32.750Z,12.20
2019-03-21T06:36:39.474Z,11.89
2019-03-21T06:37:45.558Z,12.28
2019-03-21T06:38:53.239Z,12.33
2019-03-21T06:40:00.423Z,12.51
2019-03-21T06:41:07.423Z,12.40
2019-03-21T06:42:13.496Z,12.37
2019-03-21T06:43:20.843Z,12.16
2019-03-21T06:44:28.320Z,12.45
2019-03-21T06:45:35.052Z,12.48
2019-03-21T06:46:48.957Z,12.39
2019-03-21T06:47:49.007Z,12.23
2019-03-21T06:48:55.515Z,12.06
2019-03-21T06:50:02.082Z,11.82
2019-03-21T06:51:08.211Z,12.25
2019-03-21T06:52:18.124Z,12.09
2019-03-21T06:53:24.411Z,12.34
2019-03-21T06:54:30.995Z,12.61
2019-03-21T06:55:37.719Z,12.40
2019-03-21T06:56:44.888Z,12.49
2019-03-21T06:57:52.105Z,12.81
2019-03-21T06:58:57.800Z,13.19
2019-03-21T07:00:03.580Z,12.54
2019-03-21T07:01:10.758Z,13.14
2019-03-21T07:02:16.246Z,12.86
2019-03-21T07:03:22.657Z,12.94
2019-03-21T07:04:28.741Z,13.26
2019-03-21T07:05:35.701Z,13.15
2019-03-21T07:06:42.446Z,13.27
2019-03-21T07:07:48.480Z,13.13
2019-03-21T07:08:55.111Z,13.58
2019-03-21T07:10:02.008Z,14.01
2019-03-21T07:11:08.339Z,14.10
2019-03-21T07:12:14.364Z,14.27
2019-03-21T07:13:21.719Z,14.35
2019-03-21T07:14:27.642Z,14.74
2019-03-21T07:15:33.438Z,14.09
2019-03-21T07:16:39.582Z,14.64
2019-03-21T07:17:47.088Z,14.69
2019-03-21T07:18:52.949Z,14.50
2019-03-21T07:19:59.547Z,14.14
2019-03-21T07:21:05.966Z,15.06
2019-03-21T07:22:12.462Z,14.40
2019-03-21T07:23:19.241Z,14.28
2019-03-21T07:24:26.830Z,14.82
2019-03-21T07:25:33.960Z,14.52
2019-03-21T07:26:40.045Z,14.55
2019-03-21T07:27:46.108Z,14.99
2019-03-21T07:28:52.434Z,15.44
2019-03-21T07:29:58.816Z,15.49
2019-03-21T07:31:05.444Z,15.70
2019-03-21T07:32:13.103Z,15.18
2019-03-21T07:33:19.246Z,16.12
2019-03-21T07:34:24.824Z,15.77
2019-03-21T07:35:33.582Z,16.70
2019-03-21T07:36:40.313Z,16.21
2019-03-21T07:37:46.930Z,16.26
2019-03-21T07:38:54.694Z,16.59
2019-03-21T07:40:01.213Z,17.01
2019-03-21T07:41:08.109Z,16.87
2019-03-21T07:42:14.546Z,16.51
2019-03-21T07:43:22.275Z,16.09
2019-03-21T07:44:29.396Z,16.87
2019-03-21T07:45:35.187Z,16.49
2019-03-21T07:46:41.378Z,16.96
2019-03-21T07:47:46.934Z,16.74
2019-03-21T07:48:53.423Z,17.31
2019-03-21T07:50:00.469Z,17.54
2019-03-21T07:51:07.842Z,17.53
2019-03-21T07:52:14.686Z,17.36
2019-03-21T07:53:22.146Z,16.97
2019-03-21T07:54:29.021Z,17.29
2019-03-21T07:55:35.430Z,18.25
2019-03-21T07:56:41.496Z,18.26
2019-03-21T07:57:48.334Z,18.06
2019-03-21T07:58:54.359Z,18.31
2019-03-21T08:00:02.376Z,18.51
2019-03-21T08:01:08.154Z,18.97
2019-03-21T08:02:14.996Z,19.46
2019-03-21T08:03:23.097Z,19.50
2019-03-21T08:04:28.945Z,19.37
2019-03-21T08:05:40.381Z,19.67
2019-03-21T08:06:42.397Z,18.98
2019-03-21T08:07:48.458Z,18.92
2019-03-21T08:08:55.473Z,18.57
2019-03-21T08:10:01.436Z,19.41
2019-03-21T08:11:07.235Z,18.49
2019-03-21T08:12:13.964Z,18.00
2019-03-21T08:13:21.401Z,19.53
2019-03-21T08:14:28.615Z,18.63
2019-03-21T08:15:34.379Z,18.65
2019-03-21T08:16:41.406Z,18.81
2019-03-21T08:17:47.170Z,19.01
2019-03-21T08:18:53.299Z,19.41
2019-03-21T08:20:00.322Z,19.50
2019-03-21T08:21:07.853Z,19.58
2019-03-21T08:22:14.682Z,19.65
2019-03-21T08:23:20.799Z,19.45
2019-03-21T08:24:27.431Z,19.05
2019-03-21T08:25:33.588Z,19.34
2019-03-21T08:26:39.216Z,21.04
2019-03-21T08:27:44.999Z,22.19
2019-03-21T08:28:51.453Z,23.32
2019-03-21T08:29:57.795Z,24.64
2019-03-21T08:31:23.155Z,26.26
2019-03-21T08:32:29.311Z,27.62
2019-03-21T08:33:36.264Z,28.72
2019-03-21T08:34:42.063Z,28.29
2019-03-21T08:35:49.678Z,29.15
2019-03-21T08:36:56.187Z,29.15
2019-03-21T08:38:02.051Z,30.38
2019-03-21T08:39:10.268Z,30.64
2019-03-21T08:40:16.738Z,31.88
2019-03-21T08:41:22.853Z,29.64
2019-03-21T08:42:30.321Z,28.76
2019-03-21T08:43:36.644Z,30.51
2019-03-21T08:44:43.023Z,33.64
2019-03-21T08:45:49.106Z,33.06
2019-03-21T08:46:55.213Z,32.70
2019-03-21T08:48:01.458Z,32.75
2019-03-21T08:49:07.516Z,32.35
2019-03-21T08:50:13.629Z,32.55
2019-03-21T08:51:19.834Z,33.20
2019-03-21T08:52:25.968Z,34.28
2019-03-21T08:53:32.065Z,30.92
2019-03-21T08:54:39.076Z,32.78
2019-03-21T08:55:44.873Z,33.80
2019-03-21T08:56:50.907Z,33.40
2019-03-21T08:57:57.297Z,31.30
2019-03-21T08:59:04.125Z,32.72
2019-03-21T09:00:09.915Z,32.17
2019-03-21T09:01:15.507Z,32.11
2019-03-21T09:02:21.633Z,32.85
2019-03-21T09:03:28.322Z,31.61
2019-03-21T09:04:34.628Z,33.92
2019-03-21T09:05:41.008Z,33.74
2019-03-21T09:06:47.078Z,35.12
2019-03-21T09:07:53.368Z,35.96
2019-03-21T09:08:59.683Z,36.40
2019-03-21T09:10:07.908Z,36.70
2019-03-21T09:11:14.437Z,35.96
2019-03-21T09:12:20.477Z,35.15
2019-03-21T09:13:26.235Z,35.86
2019-03-21T09:14:32.458Z,36.56
2019-03-21T09:15:38.261Z,36.91
2019-03-21T09:16:45.201Z,36.83
2019-03-21T09:17:51.267Z,37.81
2019-03-21T09:18:58.286Z,37.14
2019-03-21T09:20:05.387Z,35.24
2019-03-21T09:21:19.523Z,38.29
2019-03-21T09:22:19.226Z,36.08
2019-03-21T09:23:24.990Z,37.98
2019-03-21T09:24:31.584Z,38.12
2019-03-21T09:25:38.604Z,38.04
2019-03-21T09:26:44.609Z,37.19
2019-03-21T09:28:01.972Z,39.01
2019-03-21T09:28:59.075Z,37.82
2019-03-21T09:30:06.431Z,40.63
2019-03-21T09:31:12.539Z,38.72
2019-03-21T09:32:18.686Z,39.05
2019-03-21T09:33:24.845Z,39.08
2019-03-21T09:34:30.359Z,37.03
2019-03-21T09:35:35.851Z,38.51
2019-03-21T09:36:41.921Z,38.81
2019-03-21T09:37:47.429Z,39.09
2019-03-21T09:38:53.847Z,40.58
2019-03-21T09:39:59.646Z,39.38
2019-03-21T09:41:05.558Z,36.20
2019-03-21T09:42:11.896Z,37.92
2019-03-21T09:43:18.057Z,39.41
2019-03-21T09:44:24.293Z,37.05
2019-03-21T09:45:30.609Z,39.81
2019-03-21T09:46:36.123Z,38.60
2019-03-21T09:47:42.162Z,36.82
2019-03-21T09:48:49.089Z,39.02
2019-03-21T09:49:55.286Z,40.18
2019-03-21T09:51:01.484Z,38.62
2019-03-21T09:52:07.270Z,37.46
2019-03-21T09:53:14.606Z,38.34
2019-03-21T09:54:21.871Z,38.00
2019-03-21T09:55:28.497Z,38.21
2019-03-21T09:56:34.516Z,39.30
2019-03-21T09:57:40.745Z,37.69
2019-03-21T09:58:47.541Z,39.99
2019-03-21T09:59:54.117Z,41.46
2019-03-21T10:01:00.856Z,41.14
2019-03-21T10:02:06.663Z,39.62
2019-03-21T10:03:12.445Z,38.56
2019-03-21T10:04:19.089Z,35.18
2019-03-21T10:05:24.799Z,34.02
2019-03-21T10:06:30.598Z,32.05
2019-03-21T10:07:36.397Z,29.80
2019-03-21T10:08:43.236Z,29.33
2019-03-21T10:09:49.944Z,28.41
2019-03-21T10:10:56.546Z,26.15
2019-03-21T10:12:02.314Z,26.10
2019-03-21T10:13:07.870Z,26.29
2019-03-21T10:14:13.647Z,25.70
2019-03-21T10:15:19.616Z,24.88
2019-03-21T10:16:26.450Z,24.69
2019-03-21T10:17:31.877Z,25.55
2019-03-21T10:18:38.508Z,24.38
2019-03-21T10:19:44.365Z,25.03
2019-03-21T10:20:50.421Z,24.85
2019-03-21T10:21:57.079Z,25.09
2019-03-21T10:23:03.879Z,24.77
2019-03-21T10:24:10.783Z,25.34
2019-03-21T10:25:16.824Z,24.80
2019-03-21T10:26:22.608Z,25.33
2019-03-21T10:27:29.420Z,24.36
2019-03-21T10:28:36.065Z,25.53
2019-03-21T10:29:42.914Z,25.32
2019-03-21T10:30:48.955Z,25.05
2019-03-21T10:31:55.296Z,24.55
2019-03-21T10:33:01.799Z,25.24
2019-03-21T10:34:08.554Z,25.36
2019-03-21T10:35:14.902Z,25.31
2019-03-21T10:36:21.188Z,25.28
2019-03-21T10:37:27.748Z,25.35
2019-03-21T10:38:33.505Z,25.63
2019-03-21T10:39:40.093Z,24.98
2019-03-21T10:40:46.422Z,25.41
2019-03-21T10:41:53.789Z,25.48
2019-03-21T10:43:00.490Z,24.94
2019-03-21T10:44:06.359Z,25.62
2019-03-21T10:45:12.107Z,25.46
2019-03-21T10:46:18.222Z,24.92
2019-03-21T10:47:24.422Z,24.79
2019-03-21T10:48:30.386Z,25.14
2019-03-21T10:49:36.718Z,25.29
2019-03-21T10:50:43.396Z,25.29
2019-03-21T10:51:55.111Z,25.55
2019-03-21T10:52:58.589Z,24.96
2019-03-21T10:54:05.226Z,25.73
2019-03-21T10:55:11.325Z,26.22
2019-03-21T10:56:17.731Z,26.35
2019-03-21T10:57:24.475Z,24.53
2019-03-21T10:58:30.561Z,25.49
2019-03-21T10:59:38.437Z,25.13
2019-03-21T11:00:44.214Z,24.76
2019-03-21T11:01:49.708Z,24.90
2019-03-21T11:02:59.379Z,25.08
2019-03-21T11:04:04.917Z,24.75
2019-03-21T11:05:10.434Z,25.16
2019-03-21T11:06:17.041Z,24.90
2019-03-21T11:07:20.175Z,24.23
2019-03-21T11:08:27.162Z,24.62
2019-03-21T11:09:33.046Z,25.17
2019-03-21T11:10:40.148Z,25.39
2019-03-21T11:11:45.664Z,25.73
2019-03-21T11:12:52.526Z,26.15
2019-03-21T11:13:59.177Z,26.34
2019-03-21T11:15:05.039Z,26.22
2019-03-21T11:16:11.621Z,25.58
2019-03-21T11:17:18.465Z,25.43
2019-03-21T11:18:35.787Z,25.09
2019-03-21T11:19:33.154Z,25.31
2019-03-21T11:20:40.372Z,24.91
2019-03-21T11:21:47.369Z,24.12
2019-03-21T11:22:55.785Z,25.03
2019-03-21T11:24:01.990Z,25.59
2019-03-21T11:25:08.120Z,26.03
2019-03-21T11:26:13.954Z,26.00
2019-03-21T11:27:20.837Z,26.20
2019-03-21T11:28:26.877Z,26.63
2019-03-21T11:29:32.907Z,26.50
2019-03-21T11:30:43.279Z,26.75
2019-03-21T11:31:50.900Z,26.97
2019-03-21T11:32:57.554Z,26.17
2019-03-21T11:34:03.599Z,25.87
2019-03-21T11:35:09.661Z,26.46
2019-03-21T11:36:15.782Z,26.75
2019-03-21T11:37:21.606Z,26.04
2019-03-21T11:38:28.827Z,26.36
2019-03-21T11:39:34.601Z,26.53
2019-03-21T11:40:40.398Z,26.39
2019-03-21T11:41:46.173Z,26.82
2019-03-21T11:42:51.682Z,26.98
2019-03-21T11:43:58.073Z,26.18
2019-03-21T11:45:03.887Z,26.09
2019-03-21T11:46:09.910Z,26.38
2019-03-21T11:47:15.688Z,26.69
2019-03-21T11:48:22.496Z,26.21
2019-03-21T11:49:28.079Z,26.85
2019-03-21T11:50:34.987Z,26.78
2019-03-21T11:51:43.369Z,26.55
2019-03-21T11:52:50.526Z,27.40
2019-03-21T11:53:57.570Z,29.73
2019-03-21T11:55:04.407Z,33.41
2019-03-21T11:56:13.078Z,36.72
2019-03-21T11:57:19.276Z,38.93
2019-03-21T11:58:24.988Z,39.56
2019-03-21T11:59:41.604Z,39.36
2019-03-21T12:00:43.741Z,41.06
2019-03-21T12:01:49.607Z,41.63
2019-03-21T12:02:57.278Z,41.37
2019-03-21T12:04:03.399Z,42.25
2019-03-21T12:05:09.325Z,41.84
2019-03-21T12:06:15.448Z,43.11
2019-03-21T12:07:21.907Z,40.79
2019-03-21T12:08:28.987Z,42.12
2019-03-21T12:09:35.643Z,43.25
2019-03-21T12:10:42.610Z,43.59
2019-03-21T12:11:48.631Z,44.29
2019-03-21T12:12:55.456Z,45.29
2019-03-21T12:14:02.027Z,40.80
2019-03-21T12:15:08.162Z,39.95
2019-03-21T12:16:13.919Z,40.27
2019-03-21T12:17:21.350Z,41.03
2019-03-21T12:18:27.271Z,42.92
2019-03-21T12:19:33.836Z,43.21
2019-03-21T12:20:39.602Z,43.59
2019-03-21T12:21:46.437Z,43.66
2019-03-21T12:22:52.274Z,43.61
2019-03-21T12:23:59.422Z,43.57
2019-03-21T12:25:05.965Z,43.94
2019-03-21T12:26:11.924Z,44.06
2019-03-21T12:27:18.304Z,42.52
2019-03-21T12:28:24.639Z,42.70
2019-03-21T12:29:30.368Z,41.76
2019-03-21T12:30:41.001Z,42.33
2019-03-21T12:31:46.908Z,42.45
2019-03-21T12:32:53.741Z,41.52
2019-03-21T12:34:00.208Z,41.61
2019-03-21T12:35:07.181Z,40.21
2019-03-21T12:36:14.489Z,39.23
2019-03-21T12:37:20.551Z,37.64
2019-03-21T12:38:26.064Z,36.13
2019-03-21T12:39:31.945Z,35.01
2019-03-21T12:40:38.886Z,33.36
2019-03-21T12:41:44.392Z,33.36
2019-03-21T12:42:50.728Z,32.66
2019-03-21T12:43:56.494Z,31.87
2019-03-21T12:45:03.316Z,30.62
2019-03-21T12:46:09.319Z,30.08
2019-03-21T12:47:15.433Z,29.43
2019-03-21T12:48:22.079Z,29.75
2019-03-21T12:49:28.103Z,29.20
2019-03-21T12:50:34.185Z,29.57
2019-03-21T12:51:41.214Z,29.34
2019-03-21T12:52:47.267Z,28.70
2019-03-21T12:53:53.606Z,28.90
2019-03-21T12:54:59.702Z,28.97
2019-03-21T12:56:05.768Z,28.75
2019-03-21T12:57:11.509Z,28.87
2019-03-21T12:58:17.263Z,28.51
2019-03-21T12:59:24.089Z,28.76
2019-03-21T13:00:46.007Z,28.61
2019-03-21T13:01:52.853Z,28.74
2019-03-21T13:02:58.613Z,28.61
2019-03-21T13:04:04.148Z,27.92
2019-03-21T13:05:11.535Z,28.16
2019-03-21T13:06:18.361Z,28.13
2019-03-21T13:07:24.501Z,28.51
2019-03-21T13:08:34.106Z,28.56
2019-03-21T13:09:38.271Z,28.68
2019-03-21T13:10:45.487Z,28.72
2019-03-21T13:11:51.294Z,28.25
2019-03-21T13:12:57.272Z,28.29
2019-03-21T13:14:03.434Z,28.34
2019-03-21T13:15:09.555Z,27.73
2019-03-21T13:16:16.129Z,28.21
2019-03-21T13:17:22.182Z,28.03
2019-03-21T13:18:28.209Z,27.88
2019-03-21T13:19:34.868Z,27.57
2019-03-21T13:20:40.892Z,27.57
2019-03-21T13:21:47.136Z,27.57
2019-03-21T13:22:54.042Z,26.69
2019-03-21T13:24:00.107Z,25.84
2019-03-21T13:25:05.942Z,26.42
2019-03-21T13:26:12.009Z,26.60
2019-03-21T13:27:17.749Z,26.80
2019-03-21T13:28:25.438Z,26.82
2019-03-21T13:29:32.378Z,26.72
2019-03-21T13:30:38.537Z,26.92
2019-03-21T13:31:44.921Z,26.93
2019-03-21T13:32:52.613Z,26.73
2019-03-21T13:34:00.477Z,26.73
2019-03-21T13:35:06.566Z,26.26
2019-03-21T13:36:12.555Z,26.63
2019-03-21T13:37:19.441Z,26.84
2019-03-21T13:38:26.420Z,26.63
2019-03-21T13:39:32.964Z,27.02
2019-03-21T13:40:39.610Z,26.65
2019-03-21T13:41:46.559Z,25.98
2019-03-21T13:42:52.331Z,26.57
2019-03-21T13:43:58.731Z,26.36
2019-03-21T13:45:04.266Z,26.74
2019-03-21T13:46:10.308Z,27.18
2019-03-21T13:47:16.144Z,26.53
2019-03-21T13:48:22.709Z,26.43
2019-03-21T13:49:29.303Z,26.01
2019-03-21T13:50:35.443Z,26.13
2019-03-21T13:51:41.544Z,26.57
2019-03-21T13:52:47.915Z,26.49
2019-03-21T13:53:54.218Z,26.53
2019-03-21T13:55:00.499Z,26.24
2019-03-21T13:56:08.251Z,26.39
2019-03-21T13:57:14.970Z,26.65
2019-03-21T13:58:21.316Z,25.87
2019-03-21T13:59:27.368Z,25.54
2019-03-21T14:00:33.470Z,25.66
2019-03-21T14:01:39.801Z,26.06
2019-03-21T14:02:46.609Z,26.38
2019-03-21T14:03:52.830Z,26.59
2019-03-21T14:04:58.997Z,26.19
2019-03-21T14:06:06.011Z,26.52
2019-03-21T14:07:12.040Z,26.62
2019-03-21T14:08:18.088Z,26.58
2019-03-21T14:09:24.798Z,26.16
2019-03-21T14:10:32.428Z,26.04
2019-03-21T14:11:38.601Z,26.43
2019-03-21T14:12:44.798Z,25.67
2019-03-21T14:13:51.372Z,25.32
2019-03-21T14:15:01.200Z,25.80
2019-03-21T14:16:06.966Z,25.43
2019-03-21T14:17:21.553Z,25.08
2019-03-21T14:18:22.456Z,25.36
2019-03-21T14:19:28.478Z,25.97
2019-03-21T14:20:34.571Z,25.79
2019-03-21T14:21:40.081Z,26.22
2019-03-21T14:22:45.875Z,26.34